createdAt,value
2022-09-27T07:33:15.063Z,3.37
2022-09-27T07:35:44.089Z,2.57
2022-09-27T07:38:14.095Z,2.93
2022-09-27T07:40:42.476Z,3.03
2022-09-27T07:43:12.248Z,2.30
2022-09-27T07:45:40.480Z,2.10
2022-09-27T07:48:10.240Z,2.20
2022-09-27T07:50:39.570Z,1.83
2022-09-27T07:53:07.724Z,2.30
2022-09-27T07:55:35.748Z,2.27
2022-09-27T07:58:04.842Z,2.10
2022-09-27T08:00:32.852Z,2.10
2022-09-27T08:03:06.862Z,2.30
2022-09-27T08:05:36.138Z,1.60
2022-09-27T08:08:07.823Z,3.30
2022-09-27T08:10:36.392Z,4.13
2022-09-27T08:13:06.052Z,3.40
2022-09-27T08:15:36.087Z,2.70
2022-09-27T08:18:04.146Z,2.53
2022-09-27T08:20:32.183Z,1.93
2022-09-27T08:23:00.234Z,1.63
2022-09-27T08:25:30.650Z,2.43
2022-09-27T08:27:59.907Z,1.73
2022-09-27T08:30:29.191Z,1.87
2022-09-27T08:32:59.814Z,1.90
2022-09-27T08:35:29.154Z,1.20
2022-09-27T08:37:59.729Z,0.90
2022-09-27T08:40:45.264Z,0.90
2022-09-27T08:43:20.648Z,1.87
2022-09-27T08:46:02.993Z,1.67
2022-09-27T08:48:32.503Z,1.10
2022-09-27T08:51:03.655Z,1.20
2022-09-27T08:53:38.835Z,1.57
2022-09-27T08:56:10.577Z,1.40
2022-09-27T08:58:44.621Z,1.30
2022-09-27T09:01:15.787Z,1.20
2022-09-27T09:03:49.989Z,0.90
2022-09-27T09:06:24.884Z,1.30
2022-09-27T09:09:04.407Z,0.97
2022-09-27T09:12:06.505Z,1.40
2022-09-27T09:15:08.580Z,1.33
2022-09-27T09:17:55.030Z,1.33
2022-09-27T09:20:31.964Z,1.53
2022-09-27T09:23:31.405Z,2.00
2022-09-27T09:26:06.876Z,1.50
2022-09-27T09:28:51.560Z,2.20
2022-09-27T09:31:28.726Z,1.70
2022-09-27T09:34:02.153Z,2.03
2022-09-27T09:36:35.848Z,1.80
2022-09-27T09:39:11.124Z,2.07
2022-09-27T09:41:42.769Z,2.33
2022-09-27T09:44:19.811Z,2.00
2022-09-27T09:46:51.177Z,2.03
2022-09-27T09:49:24.591Z,1.63
2022-09-27T09:51:56.852Z,1.60
2022-09-27T09:54:32.390Z,2.17
2022-09-27T09:57:06.650Z,1.40
2022-09-27T09:59:44.085Z,1.83
2022-09-27T10:02:24.799Z,1.80
2022-09-27T10:04:52.973Z,1.63
2022-09-27T10:07:23.712Z,1.57
2022-09-27T10:09:52.605Z,1.37
2022-09-27T10:12:20.720Z,1.70
2022-09-27T10:14:59.566Z,1.30
2022-09-27T10:17:36.271Z,1.60
2022-09-27T10:20:07.078Z,1.70
2022-09-27T10:22:39.460Z,1.13
2022-09-27T10:25:09.649Z,0.97
2022-09-27T10:27:42.211Z,1.10
2022-09-27T10:30:25.045Z,1.33
2022-09-27T10:32:56.948Z,1.30
2022-09-27T10:35:37.076Z,1.47
2022-09-27T10:38:26.227Z,1.27
2022-09-27T10:40:56.734Z,1.33
2022-09-27T10:43:29.908Z,1.90
2022-09-27T10:46:12.395Z,1.60
2022-09-27T10:48:42.063Z,1.60
2022-09-27T10:51:25.045Z,2.10
2022-09-27T10:53:53.739Z,1.90
2022-09-27T10:56:25.148Z,1.70
2022-09-27T10:58:53.927Z,1.87
2022-09-27T11:01:23.948Z,1.90
2022-09-27T11:03:54.692Z,2.00
2022-09-27T11:06:38.159Z,2.03
2022-09-27T11:09:19.923Z,1.77
2022-09-27T11:11:47.999Z,1.70
2022-09-27T11:14:21.826Z,1.67
2022-09-27T11:17:07.930Z,1.70
2022-09-27T11:20:00.575Z,1.70
2022-09-27T11:22:49.394Z,1.90
2022-09-27T11:25:32.086Z,1.93
2022-09-27T11:28:08.248Z,2.33
2022-09-27T11:30:45.093Z,1.90
2022-09-27T11:33:36.190Z,1.60
2022-09-27T11:36:13.872Z,1.80
2022-09-27T11:38:54.185Z,1.90
2022-09-27T11:41:36.406Z,2.03
2022-09-27T11:44:33.788Z,1.53
2022-09-27T11:47:10.358Z,1.60
2022-09-27T11:50:05.939Z,1.60
2022-09-27T11:52:50.936Z,1.40
2022-09-27T11:55:32.599Z,1.40
2022-09-27T11:58:10.647Z,1.90
2022-09-27T12:00:56.922Z,1.43
2022-09-27T12:03:47.785Z,1.27
2022-09-27T12:06:22.871Z,1.00
2022-09-27T12:09:02.717Z,1.30
2022-09-27T12:11:36.718Z,2.00
2022-09-27T12:14:10.216Z,1.63
2022-09-27T12:16:40.388Z,1.23
2022-09-27T12:19:18.193Z,1.47
2022-09-27T12:21:48.913Z,1.30
2022-09-27T12:24:22.559Z,1.37
2022-09-27T12:26:55.122Z,1.10
2022-09-27T12:29:27.956Z,1.10
2022-09-27T12:32:04.284Z,1.20
2022-09-27T12:34:39.215Z,1.60
2022-09-27T12:37:14.139Z,1.20
2022-09-27T12:39:51.270Z,1.20
2022-09-27T12:42:24.101Z,1.87
2022-09-27T12:44:53.549Z,1.10
2022-09-27T12:47:51.520Z,1.00
2022-09-27T12:50:30.305Z,1.23
2022-09-27T12:53:05.499Z,1.27
2022-09-27T12:56:08.002Z,1.10
2022-09-27T12:58:53.885Z,1.10
2022-09-27T13:01:36.334Z,1.10
2022-09-27T13:04:27.448Z,1.10
2022-09-27T13:07:20.436Z,1.20
2022-09-27T13:10:26.509Z,1.00
2022-09-27T13:12:55.745Z,1.03
2022-09-27T13:15:29.068Z,0.90
2022-09-27T13:17:59.963Z,0.97
2022-09-27T13:20:46.476Z,1.07
2022-09-27T13:24:03.844Z,1.13
2022-09-27T13:27:02.192Z,1.30
2022-09-27T13:29:33.261Z,1.30
2022-09-27T13:32:23.578Z,1.33
2022-09-27T13:34:53.943Z,1.33
2022-09-27T13:37:59.392Z,1.50
2022-09-27T13:40:31.585Z,2.00
2022-09-27T13:43:33.123Z,1.60
2022-09-27T13:46:05.874Z,1.80
2022-09-27T13:48:45.311Z,1.70
2022-09-27T13:51:22.250Z,1.57
2022-09-27T13:53:59.390Z,1.20
2022-09-27T13:57:07.742Z,1.33
2022-09-27T13:59:44.434Z,1.93
2022-09-27T14:02:20.589Z,2.10
2022-09-27T14:04:51.565Z,2.20
2022-09-27T14:07:23.714Z,1.57
2022-09-27T14:09:56.314Z,1.40
2022-09-27T14:12:29.841Z,1.87
2022-09-27T14:15:01.235Z,1.57
2022-09-27T14:17:31.598Z,1.93
2022-09-27T14:19:59.967Z,1.90
2022-09-27T14:22:28.143Z,2.37
2022-09-27T14:24:58.677Z,1.40
2022-09-27T14:27:28.395Z,1.33
2022-09-27T14:30:00.920Z,1.97
2022-09-27T14:32:31.639Z,1.67
2022-09-27T14:35:30.821Z,1.50
2022-09-27T14:38:00.721Z,1.70
2022-09-27T14:40:40.200Z,1.90
2022-09-27T14:43:12.628Z,1.97
2022-09-27T14:45:46.490Z,1.60
2022-09-27T14:48:23.700Z,1.70
2022-09-27T14:51:01.335Z,1.90
2022-09-27T14:53:35.721Z,2.40
2022-09-27T14:56:07.149Z,2.00
2022-09-27T14:58:47.021Z,1.80
2022-09-27T15:01:20.134Z,2.40
2022-09-27T15:03:49.832Z,2.77
2022-09-27T15:06:18.212Z,2.40
2022-09-27T15:08:49.386Z,2.03
2022-09-27T15:11:19.270Z,2.23
2022-09-27T15:13:51.419Z,2.63
2022-09-27T15:16:23.765Z,2.17
2022-09-27T15:19:00.700Z,2.40
2022-09-27T15:21:31.090Z,2.10
2022-09-27T15:24:00.289Z,2.20
2022-09-27T15:26:37.683Z,2.20
2022-09-27T15:29:06.895Z,2.47
2022-09-27T15:31:37.844Z,2.30
2022-09-27T15:34:06.979Z,2.80
2022-09-27T15:36:58.504Z,2.07
2022-09-27T15:39:32.940Z,2.33
2022-09-27T15:42:07.418Z,2.50
2022-09-27T15:44:47.286Z,2.40
2022-09-27T15:47:41.799Z,2.63
2022-09-27T15:50:49.044Z,3.03
2022-09-27T15:53:41.657Z,2.53
2022-09-27T15:56:15.757Z,2.70
2022-09-27T15:58:47.406Z,2.47
2022-09-27T16:01:23.497Z,2.10
2022-09-27T16:03:53.089Z,2.03
2022-09-27T16:06:22.160Z,2.20
2022-09-27T16:08:50.158Z,2.17
2022-09-27T16:11:18.292Z,1.50
2022-09-27T16:13:46.937Z,2.23
2022-09-27T16:16:20.301Z,1.47
2022-09-27T16:18:48.993Z,2.17
2022-09-27T16:21:18.697Z,2.10
2022-09-27T16:23:46.734Z,2.90
2022-09-27T16:26:14.859Z,3.23
2022-09-27T16:28:43.110Z,2.63
2022-09-27T16:31:12.194Z,2.57
2022-09-27T16:33:40.379Z,2.57
2022-09-27T16:36:14.427Z,2.60
2022-09-27T16:38:44.304Z,2.40
2022-09-27T16:41:12.324Z,1.93
2022-09-27T16:43:40.389Z,1.90
2022-09-27T16:46:11.771Z,1.77
2022-09-27T16:48:40.487Z,1.97
2022-09-27T16:51:29.347Z,1.53
2022-09-27T16:53:58.810Z,1.40
2022-09-27T16:56:28.040Z,1.10
2022-09-27T16:58:56.149Z,1.20
2022-09-27T17:01:24.233Z,1.20
2022-09-27T17:03:57.330Z,1.00
2022-09-27T17:06:25.958Z,1.37
2022-09-27T17:08:53.979Z,1.10
2022-09-27T17:11:24.350Z,1.30
2022-09-27T17:13:55.975Z,0.80
2022-09-27T17:16:24.905Z,1.60
2022-09-27T17:18:53.222Z,1.00
2022-09-27T17:22:32.428Z,1.33
2022-09-27T17:25:00.996Z,1.37
2022-09-27T17:27:29.881Z,1.10
2022-09-27T17:29:58.124Z,1.00
2022-09-27T17:32:29.313Z,1.17
2022-09-27T17:34:58.765Z,1.20
